Time;durP1;ratioP1;P1;durP2;ratioP2;P2;SDS_P1;SDS_P2;PMS_P1;PMS_P2;Temp;Humidity;BMP_temperature;BMP_pressure;BME280_temperature;BME280_humidity;BME280_pressure;Samples;Min_cycle;Max_cycle;Signal;HPM_P1;HPM_P2
2021/05/31 00:00:35;;;;;;;21.80;14.60;;;16.60;92.40;;;;;;4949195;28;20218;-76
2021/05/31 00:03:02;;;;;;;25.83;14.63;;;16.60;92.50;;;;;;4932831;28;20224;-76
2021/05/31 00:05:31;;;;;;;22.92;15.00;;;16.60;92.60;;;;;;4949909;28;20737;-78
2021/05/31 00:07:57;;;;;;;21.00;14.52;;;16.50;92.70;;;;;;4953599;28;20289;-76
2021/05/31 00:10:25;;;;;;;21.08;14.57;;;16.50;92.80;;;;;;4948714;28;20210;-76
2021/05/31 00:12:53;;;;;;;23.70;15.35;;;16.40;92.90;;;;;;4952165;28;20770;-77
2021/05/31 00:15:19;;;;;;;26.88;15.55;;;16.40;93.10;;;;;;4950302;28;20253;-76
2021/05/31 00:17:45;;;;;;;25.05;15.07;;;16.40;93.30;;;;;;4950448;28;20203;-77
2021/05/31 00:20:13;;;;;;;25.95;15.57;;;16.40;93.40;;;;;;4952690;28;20209;-77
2021/05/31 00:22:39;;;;;;;20.98;15.40;;;16.30;93.50;;;;;;4951156;28;20600;-76
2021/05/31 00:25:08;;;;;;;25.63;16.30;;;16.30;93.60;;;;;;4952487;28;20206;-77
2021/05/31 00:27:35;;;;;;;31.38;16.30;;;16.20;93.70;;;;;;4950674;28;20608;-77
2021/05/31 00:30:02;;;;;;;30.98;16.95;;;16.20;93.90;;;;;;4931746;28;20202;-76
2021/05/31 00:32:29;;;;;;;24.52;16.08;;;16.10;94.00;;;;;;4953835;28;20678;-75
2021/05/31 00:34:55;;;;;;;24.67;16.50;;;16.10;94.10;;;;;;4950407;28;20234;-76
2021/05/31 00:37:21;;;;;;;27.60;16.95;;;16.10;94.30;;;;;;4951168;28;20210;-76
2021/05/31 00:39:47;;;;;;;24.88;16.38;;;16.00;94.40;;;;;;4951012;28;20667;-75
2021/05/31 00:42:14;;;;;;;24.90;16.23;;;16.00;94.60;;;;;;4935682;28;20292;-76
2021/05/31 00:44:42;;;;;;;24.92;18.00;;;16.00;94.70;;;;;;4949322;28;20437;-76
2021/05/31 00:47:08;;;;;;;27.63;17.17;;;16.40;95.30;;;;;;4933326;29;20214;-75
2021/05/31 00:49:37;;;;;;;27.17;17.40;;;16.20;95.20;;;;;;4951655;28;20215;-76
2021/05/31 00:52:05;;;;;;;30.13;17.38;;;16.10;95.40;;;;;;4949408;28;20210;-76
2021/05/31 00:54:31;;;;;;;26.63;17.52;;;16.10;95.50;;;;;;4952701;28;20281;-76
2021/05/31 00:56:58;;;;;;;24.17;17.83;;;16.00;95.50;;;;;;4929846;29;20206;-76
2021/05/31 00:59:24;;;;;;;31.40;17.45;;;15.90;95.60;;;;;;4952293;28;20516;-77
2021/05/31 01:01:51;;;;;;;25.92;17.48;;;15.80;95.70;;;;;;4949938;28;20215;-75
2021/05/31 01:04:19;;;;;;;26.67;17.90;;;15.80;95.80;;;;;;4931607;29;20632;-75
2021/05/31 01:06:52;;;;;;;27.00;18.73;;;15.80;95.90;;;;;;4952686;28;20199;-76
2021/05/31 01:09:28;;;;;;;27.52;18.63;;;15.70;95.90;;;;;;4949181;28;20234;-75
2021/05/31 01:12:04;;;;;;;32.53;17.77;;;15.70;96.00;;;;;;4951077;28;20682;-75
2021/05/31 01:14:40;;;;;;;32.00;17.85;;;15.70;96.00;;;;;;4953224;28;20211;-76
2021/05/31 01:17:13;;;;;;;28.35;17.58;;;15.60;96.10;;;;;;4952677;28;20206;-76
2021/05/31 01:20:02;;;;;;;27.85;18.08;;;15.60;96.20;;;;;;4946604;28;20211;-77
2021/05/31 01:22:32;;;;;;;25.52;17.98;;;15.60;96.20;;;;;;4939754;28;20246;-76
2021/05/31 01:25:22;;;;;;;26.13;18.33;;;15.50;96.30;;;;;;4951296;28;20606;-76
2021/05/31 01:28:09;;;;;;;29.20;18.52;;;15.50;96.40;;;;;;4930765;29;20261;-76
2021/05/31 01:30:40;;;;;;;27.02;18.52;;;15.50;96.50;;;;;;4951714;28;20198;-77
2021/05/31 01:33:10;;;;;;;29.05;18.35;;;15.40;96.60;;;;;;4953756;28;20208;-77
2021/05/31 01:35:37;;;;;;;28.60;18.13;;;15.40;96.70;;;;;;4930527;28;20210;-77
2021/05/31 01:38:04;;;;;;;25.73;18.77;;;15.40;96.70;;;;;;4952233;28;20213;-76
2021/05/31 01:40:32;;;;;;;28.48;20.25;;;15.40;96.80;;;;;;4945513;28;20441;-75
2021/05/31 01:43:00;;;;;;;26.35;19.05;;;15.90;97.30;;;;;;4954297;28;20581;-75
2021/05/31 01:45:28;;;;;;;30.05;20.13;;;15.70;97.30;;;;;;4932271;28;20448;-76
2021/05/31 01:47:56;;;;;;;30.23;20.17;;;16.00;96.90;;;;;;4937467;28;20444;-75
2021/05/31 01:50:23;;;;;;;27.48;20.13;;;16.30;96.20;;;;;;4955011;28;20524;-76
2021/05/31 01:52:49;;;;;;;26.73;18.50;;;16.50;95.60;;;;;;4955792;28;20216;-74
2021/05/31 01:55:16;;;;;;;25.23;18.33;;;16.20;96.10;;;;;;4951206;28;20224;-77
2021/05/31 01:57:43;;;;;;;26.73;18.48;;;16.00;96.40;;;;;;4955430;28;20241;-76
2021/05/31 02:00:11;;;;;;;27.38;18.45;;;15.80;96.60;;;;;;4951698;28;20609;-75
2021/05/31 02:02:38;;;;;;;28.58;17.95;;;15.70;96.80;;;;;;4957985;28;20229;-74
2021/05/31 02:05:08;;;;;;;30.00;19.02;;;15.60;96.70;;;;;;4936756;28;20206;-74
2021/05/31 02:07:37;;;;;;;27.27;18.95;;;15.50;96.80;;;;;;4940165;29;21043;-74
2021/05/31 02:10:05;;;;;;;30.55;19.13;;;15.40;96.90;;;;;;4955515;28;20716;-77
2021/05/31 02:12:38;;;;;;;31.95;18.42;;;15.40;97.00;;;;;;4938739;29;20826;-77
2021/05/31 02:15:07;;;;;;;27.88;19.00;;;15.30;97.40;;;;;;4956083;28;20553;-76
2021/05/31 02:17:40;;;;;;;30.15;19.77;;;15.30;97.10;;;;;;4955282;28;20229;-76
2021/05/31 02:20:10;;;;;;;28.95;18.98;;;15.30;97.20;;;;;;4954592;28;20206;-76
2021/05/31 02:22:40;;;;;;;27.70;18.50;;;15.20;97.20;;;;;;4952655;28;20303;-76
2021/05/31 02:25:07;;;;;;;29.17;18.75;;;15.20;97.30;;;;;;4954333;28;20214;-77
2021/05/31 02:27:34;;;;;;;31.50;18.85;;;15.20;97.40;;;;;;4953021;28;20705;-77
2021/05/31 02:30:01;;;;;;;26.58;18.48;;;15.10;97.40;;;;;;4953921;28;23130;-76
2021/05/31 02:32:28;;;;;;;31.67;19.38;;;15.10;97.40;;;;;;4954121;28;20195;-77
2021/05/31 02:34:55;;;;;;;29.95;18.83;;;15.20;97.50;;;;;;4951745;28;20257;-76
2021/05/31 02:37:33;;;;;;;28.85;19.05;;;15.10;97.50;;;;;;4937263;28;20198;-76
2021/05/31 02:39:59;;;;;;;27.33;19.15;;;15.10;97.60;;;;;;4952673;28;20655;-76
2021/05/31 02:42:26;;;;;;;29.27;19.77;;;15.00;97.70;;;;;;4951942;28;20651;-76
2021/05/31 02:44:52;;;;;;;31.30;19.00;;;14.90;97.80;;;;;;4953819;28;20206;-76
2021/05/31 02:47:18;;;;;;;27.65;18.98;;;14.90;97.90;;;;;;4952577;28;20663;-76
2021/05/31 02:49:44;;;;;;;27.13;19.38;;;14.90;98.40;;;;;;4935865;29;20727;-76
2021/05/31 02:52:11;;;;;;;28.23;19.10;;;14.80;98.00;;;;;;4953324;28;20206;-76
2021/05/31 02:54:39;;;;;;;27.58;19.23;;;14.80;98.10;;;;;;4952672;28;20210;-77
2021/05/31 02:57:05;;;;;;;32.70;20.00;;;14.80;98.20;;;;;;4934882;29;20211;-76
2021/05/31 02:59:32;;;;;;;30.30;19.33;;;14.80;98.20;;;;;;4950721;28;20219;-76
2021/05/31 03:01:58;;;;;;;33.85;20.08;;;14.70;98.30;;;;;;4952054;28;20214;-76
2021/05/31 03:04:24;;;;;;;30.05;18.50;;;14.70;98.40;;;;;;4950082;28;20202;-76
2021/05/31 03:06:50;;;;;;;29.15;19.88;;;14.70;98.50;;;;;;4953220;28;20222;-76
2021/05/31 03:09:17;;;;;;;35.33;20.17;;;14.70;98.50;;;;;;4951765;28;20216;-77
2021/05/31 03:11:44;;;;;;;26.25;19.25;;;14.70;98.60;;;;;;4950653;28;20270;-76
2021/05/31 03:14:11;;;;;;;29.33;19.80;;;14.70;98.70;;;;;;4949245;28;20202;-75
2021/05/31 03:16:37;;;;;;;32.10;20.17;;;14.70;98.80;;;;;;4950296;28;20245;-74
2021/05/31 03:19:03;;;;;;;31.58;20.63;;;14.60;98.80;;;;;;4950753;28;20221;-75
2021/05/31 03:21:30;;;;;;;31.85;20.55;;;14.60;98.90;;;;;;4950582;28;20214;-76
2021/05/31 03:23:56;;;;;;;31.48;20.70;;;14.60;99.00;;;;;;4951416;28;20647;-77
2021/05/31 03:26:22;;;;;;;29.77;19.52;;;14.60;99.10;;;;;;4950270;28;20211;-77
2021/05/31 03:28:50;;;;;;;29.27;19.95;;;14.60;99.10;;;;;;4950034;28;20210;-77
2021/05/31 03:31:16;;;;;;;32.65;20.52;;;14.60;99.20;;;;;;4929894;28;20206;-77
2021/05/31 03:33:43;;;;;;;28.60;19.77;;;14.50;99.10;;;;;;4949948;28;20718;-77
2021/05/31 03:36:09;;;;;;;29.85;20.17;;;14.50;99.20;;;;;;4951464;28;20214;-75
2021/05/31 03:38:35;;;;;;;31.10;20.92;;;14.50;99.20;;;;;;4937696;28;20695;-76
2021/05/31 03:41:02;;;;;;;29.02;20.23;;;14.50;99.30;;;;;;4951647;28;20694;-76
2021/05/31 03:43:28;;;;;;;29.70;20.63;;;14.50;99.30;;;;;;4950824;28;20213;-76
2021/05/31 03:45:55;;;;;;;30.67;20.92;;;14.50;99.30;;;;;;4951560;28;20201;-75
2021/05/31 03:48:22;;;;;;;35.28;21.70;;;14.50;99.40;;;;;;4934108;29;20707;-77
2021/05/31 03:50:48;;;;;;;32.67;21.15;;;14.50;99.40;;;;;;4951062;28;20202;-77
2021/05/31 03:53:14;;;;;;;36.85;20.80;;;14.50;99.50;;;;;;4952201;28;20773;-76
2021/05/31 03:55:41;;;;;;;34.15;21.02;;;14.50;99.50;;;;;;4934438;28;20215;-75
2021/05/31 03:58:08;;;;;;;34.33;21.40;;;14.50;99.60;;;;;;4954775;28;20749;-74
2021/05/31 04:00:35;;;;;;;34.75;21.85;;;14.40;99.60;;;;;;4950017;28;20290;-75
2021/05/31 04:03:03;;;;;;;35.78;22.35;;;14.50;99.70;;;;;;4934876;28;20211;-74
2021/05/31 04:05:33;;;;;;;34.28;21.88;;;14.50;99.70;;;;;;4949001;28;20198;-75
2021/05/31 04:13:39;;;;;;;34.38;21.90;;;14.40;99.80;;;;;;4873643;29;20735;-77
2021/05/31 04:16:06;;;;;;;38.72;22.35;;;14.50;99.90;;;;;;4935503;28;20319;-75
2021/05/31 04:18:34;;;;;;;33.47;21.45;;;14.40;99.90;;;;;;4953228;28;20221;-73
2021/05/31 04:21:00;;;;;;;37.30;22.30;;;14.40;99.90;;;;;;4951110;28;20206;-76
2021/05/31 04:23:26;;;;;;;34.05;22.77;;;14.40;99.90;;;;;;4951835;28;20199;-76
2021/05/31 04:25:52;;;;;;;33.78;21.15;;;14.40;99.90;;;;;;4932478;29;20206;-76
2021/05/31 04:28:19;;;;;;;33.05;22.88;;;14.40;99.90;;;;;;4934990;28;20263;-75
2021/05/31 04:30:45;;;;;;;33.40;22.67;;;14.40;99.90;;;;;;4952514;28;20262;-75
2021/05/31 04:33:11;;;;;;;34.70;21.65;;;14.50;99.90;;;;;;4953947;28;20213;-75
2021/05/31 04:35:39;;;;;;;35.22;22.95;;;14.50;99.90;;;;;;4950393;28;20707;-75
2021/05/31 04:38:05;;;;;;;37.40;23.15;;;14.50;99.90;;;;;;4948561;28;20235;-74
2021/05/31 04:40:32;;;;;;;36.83;22.65;;;14.50;99.90;;;;;;4938670;28;20214;-76
2021/05/31 04:42:58;;;;;;;35.20;22.33;;;14.50;99.90;;;;;;4948653;28;20241;-75
2021/05/31 04:45:24;;;;;;;37.38;23.10;;;14.50;99.90;;;;;;4953700;28;20663;-75
2021/05/31 04:47:51;;;;;;;36.20;23.73;;;14.50;99.90;;;;;;4951579;28;20210;-76
2021/05/31 04:50:17;;;;;;;36.20;23.10;;;14.50;99.90;;;;;;4949239;28;20207;-76
2021/05/31 04:52:45;;;;;;;36.53;23.58;;;14.50;99.90;;;;;;4952021;28;20206;-77
2021/05/31 04:55:16;;;;;;;41.03;23.75;;;14.50;99.90;;;;;;4948851;28;20669;-77
2021/05/31 04:57:42;;;;;;;36.58;24.38;;;14.50;99.90;;;;;;4953081;28;20203;-76
2021/05/31 05:00:10;;;;;;;39.67;23.85;;;14.50;99.90;;;;;;4949125;28;20224;-76
2021/05/31 05:02:36;;;;;;;45.20;24.25;;;14.50;99.90;;;;;;4951154;28;20214;-76
2021/05/31 05:05:03;;;;;;;39.10;24.55;;;14.50;99.90;;;;;;4944641;28;20206;-77
2021/05/31 05:07:29;;;;;;;42.95;24.98;;;14.50;99.90;;;;;;4950392;28;20581;-77
2021/05/31 05:09:57;;;;;;;41.58;24.75;;;14.50;99.90;;;;;;4948930;28;20202;-77
2021/05/31 05:12:23;;;;;;;43.38;25.83;;;14.60;99.90;;;;;;4947596;28;20663;-77
2021/05/31 05:14:50;;;;;;;47.78;25.45;;;14.60;99.90;;;;;;4945255;28;20206;-77
2021/05/31 05:17:16;;;;;;;47.03;25.15;;;14.60;99.90;;;;;;4946941;28;20558;-77
2021/05/31 05:19:43;;;;;;;43.05;26.48;;;14.60;99.90;;;;;;4932417;29;20573;-76
2021/05/31 05:22:09;;;;;;;47.85;25.92;;;14.60;99.90;;;;;;4951424;28;20618;-76
2021/05/31 05:24:35;;;;;;;46.45;26.60;;;14.70;99.90;;;;;;4948477;28;20207;-76
2021/05/31 05:27:05;;;;;;;46.15;27.13;;;14.70;99.90;;;;;;4949708;28;20202;-76
2021/05/31 05:29:31;;;;;;;51.08;27.65;;;14.70;99.90;;;;;;4949086;28;20876;-78
2021/05/31 05:31:59;;;;;;;45.28;27.83;;;14.70;99.90;;;;;;4949128;28;20451;-76
2021/05/31 05:34:25;;;;;;;48.22;27.73;;;14.70;99.90;;;;;;4948031;28;20250;-76
2021/05/31 05:36:56;;;;;;;45.95;27.85;;;14.70;99.90;;;;;;4948696;28;20664;-75
2021/05/31 05:42:32;;;;;;;46.85;27.90;;;14.70;99.90;;;;;;4914647;28;20245;-77
2021/05/31 05:45:22;;;;;;;54.10;28.70;;;14.80;99.90;;;;;;4946899;28;20234;-75
2021/05/31 05:47:48;;;;;;;55.35;29.42;;;14.80;99.90;;;;;;4951290;28;20206;-76
2021/05/31 05:50:17;;;;;;;50.63;28.88;;;14.80;99.90;;;;;;4951638;28;20209;-75
2021/05/31 05:52:44;;;;;;;48.90;28.80;;;14.80;99.90;;;;;;4935724;28;20235;-76
2021/05/31 05:55:12;;;;;;;51.60;29.05;;;14.80;99.90;;;;;;4949398;28;20206;-75
2021/05/31 05:57:40;;;;;;;53.47;28.80;;;14.80;99.90;;;;;;4936787;28;20230;-75
2021/05/31 06:00:09;;;;;;;47.95;28.80;;;14.90;99.90;;;;;;4948482;28;20198;-76
2021/05/31 06:02:39;;;;;;;50.35;28.55;;;14.90;99.90;;;;;;4948568;28;20306;-76
2021/05/31 06:05:06;;;;;;;52.50;27.98;;;14.90;99.90;;;;;;4951052;28;20254;-76
2021/05/31 06:07:33;;;;;;;53.65;28.77;;;15.00;99.90;;;;;;4951521;28;20222;-75
2021/05/31 06:10:00;;;;;;;47.20;28.45;;;15.00;99.90;;;;;;4953480;28;20211;-77
2021/05/31 06:12:26;;;;;;;56.63;28.92;;;15.00;99.90;;;;;;4933926;29;20209;-76
2021/05/31 06:14:54;;;;;;;49.35;27.67;;;15.10;99.90;;;;;;4952973;28;20547;-76
2021/05/31 06:17:20;;;;;;;51.67;28.08;;;15.10;99.90;;;;;;4951907;28;20554;-76
2021/05/31 06:19:47;;;;;;;52.95;28.85;;;15.10;99.90;;;;;;4935465;29;20225;-75
2021/05/31 06:22:13;;;;;;;46.72;27.60;;;15.10;99.90;;;;;;4952463;28;20226;-75
2021/05/31 06:24:39;;;;;;;49.97;27.67;;;15.20;99.90;;;;;;4947251;28;20273;-75
2021/05/31 06:27:07;;;;;;;48.65;28.48;;;15.20;99.90;;;;;;4951759;28;20202;-75
2021/05/31 06:29:33;;;;;;;54.50;28.67;;;15.30;99.90;;;;;;4952824;28;20210;-75
2021/05/31 06:32:01;;;;;;;50.33;26.67;;;15.30;99.90;;;;;;4951382;28;20198;-75
2021/05/31 06:34:27;;;;;;;50.28;27.42;;;15.30;99.90;;;;;;4951694;28;20296;-74
2021/05/31 06:36:55;;;;;;;43.97;26.75;;;15.40;99.90;;;;;;4954635;29;20218;-80
2021/05/31 06:39:21;;;;;;;46.10;27.38;;;15.40;99.90;;;;;;4955690;28;20624;-77
2021/05/31 06:41:48;;;;;;;49.17;26.85;;;15.50;99.90;;;;;;4934314;29;20215;-76
2021/05/31 06:44:15;;;;;;;46.10;27.17;;;15.50;99.90;;;;;;4955901;28;20204;-74
2021/05/31 06:46:41;;;;;;;53.28;28.67;;;15.50;99.90;;;;;;4956371;28;20206;-77
2021/05/31 06:49:09;;;;;;;43.90;27.00;;;15.50;99.90;;;;;;4952645;28;20674;-77
2021/05/31 06:51:36;;;;;;;48.05;28.83;;;15.60;99.90;;;;;;4955710;28;20425;-77
2021/05/31 06:54:02;;;;;;;47.08;28.38;;;16.00;99.90;;;;;;4949279;28;20838;-77
2021/05/31 06:56:28;;;;;;;45.83;28.42;;;16.40;99.90;;;;;;4955508;28;20909;-75
2021/05/31 06:58:55;;;;;;;51.05;30.13;;;16.60;99.90;;;;;;4953765;28;20438;-76
2021/05/31 07:01:21;;;;;;;55.05;30.60;;;16.80;99.90;;;;;;4933897;29;20430;-76
2021/05/31 07:03:48;;;;;;;51.30;29.50;;;16.90;99.90;;;;;;4952504;28;20752;-77
2021/05/31 07:06:15;;;;;;;44.97;30.05;;;17.00;99.60;;;;;;4935386;29;20414;-78
2021/05/31 07:08:42;;;;;;;52.05;30.02;;;17.10;99.20;;;;;;4952361;28;20440;-76
2021/05/31 07:11:11;;;;;;;43.55;28.92;;;17.20;99.10;;;;;;4953448;28;20440;-79
2021/05/31 07:13:38;;;;;;;47.03;28.70;;;17.30;98.40;;;;;;4953614;28;20864;-76
2021/05/31 07:16:05;;;;;;;49.10;29.73;;;17.40;98.20;;;;;;4935604;28;20424;-78
2021/05/31 07:18:32;;;;;;;48.60;28.83;;;17.50;97.90;;;;;;4953108;28;20488;-76
2021/05/31 07:21:01;;;;;;;46.15;27.65;;;17.50;97.60;;;;;;4935796;28;20429;-77
2021/05/31 07:23:29;;;;;;;50.00;28.30;;;17.60;97.50;;;;;;4953486;28;20417;-77
2021/05/31 07:25:55;;;;;;;43.10;26.23;;;17.70;97.00;;;;;;4952800;28;20425;-77
2021/05/31 07:28:21;;;;;;;45.45;26.52;;;17.70;96.70;;;;;;4954692;28;20429;-80
2021/05/31 07:30:48;;;;;;;44.00;26.83;;;17.80;96.50;;;;;;4953857;28;22734;-75
2021/05/31 07:33:14;;;;;;;41.90;25.17;;;17.80;96.20;;;;;;4951571;28;20949;-78
2021/05/31 07:35:41;;;;;;;41.60;26.55;;;17.80;95.60;;;;;;4953403;28;20881;-79
2021/05/31 07:38:08;;;;;;;42.47;27.00;;;17.90;95.60;;;;;;4934438;29;21289;-76
2021/05/31 07:40:35;;;;;;;46.33;26.48;;;18.00;95.40;;;;;;4956104;28;20906;-76
2021/05/31 07:43:02;;;;;;;43.70;26.40;;;18.00;95.60;;;;;;4952251;28;20442;-77
2021/05/31 07:45:28;;;;;;;44.55;26.35;;;18.10;94.90;;;;;;4949891;28;20434;-78
2021/05/31 07:47:54;;;;;;;42.33;26.20;;;18.10;94.80;;;;;;4951567;28;20440;-76
2021/05/31 07:50:21;;;;;;;40.35;24.30;;;18.10;94.30;;;;;;4932571;29;20438;-76
2021/05/31 07:52:48;;;;;;;37.47;22.75;;;18.20;94.10;;;;;;4932896;29;20480;-76
2021/05/31 07:55:17;;;;;;;38.97;22.77;;;18.30;93.70;;;;;;4933146;29;20542;-76
2021/05/31 07:57:46;;;;;;;37.28;21.55;;;18.30;93.60;;;;;;4952492;28;20465;-76
2021/05/31 08:00:15;;;;;;;35.03;21.40;;;18.40;93.20;;;;;;4950604;28;20520;-76
2021/05/31 08:02:43;;;;;;;32.33;21.80;;;18.40;92.90;;;;;;4953306;28;20528;-76
2021/05/31 08:05:11;;;;;;;34.95;20.83;;;18.40;92.40;;;;;;4948912;28;20503;-76
2021/05/31 08:07:37;;;;;;;38.40;21.10;;;18.50;92.20;;;;;;4950707;28;20430;-76
2021/05/31 08:10:06;;;;;;;33.00;19.13;;;18.50;91.90;;;;;;4948703;28;20429;-76
2021/05/31 08:12:33;;;;;;;36.55;18.95;;;18.60;91.60;;;;;;4948769;28;20575;-76
2021/05/31 08:15:01;;;;;;;28.75;17.92;;;18.70;90.80;;;;;;4948079;28;20445;-75
2021/05/31 08:17:27;;;;;;;32.67;19.13;;;18.70;90.30;;;;;;4950507;28;20911;-77
2021/05/31 08:19:53;;;;;;;28.10;17.67;;;18.70;91.30;;;;;;4934454;29;20823;-76
2021/05/31 08:22:20;;;;;;;29.88;18.00;;;18.80;90.80;;;;;;4950143;28;20438;-77
2021/05/31 08:24:46;;;;;;;28.83;18.33;;;18.80;90.40;;;;;;4948652;28;20431;-76
2021/05/31 08:27:12;;;;;;;29.55;17.92;;;18.90;90.00;;;;;;4950610;28;20437;-76
2021/05/31 08:29:39;;;;;;;28.55;17.33;;;18.90;88.10;;;;;;4933305;29;20517;-76
2021/05/31 08:32:07;;;;;;;27.05;16.95;;;19.00;88.60;;;;;;4950507;28;20429;-76
2021/05/31 08:34:33;;;;;;;30.25;16.92;;;19.10;89.20;;;;;;4952258;28;20831;-77
2021/05/31 08:37:00;;;;;;;;;;;19.10;90.20;;;;;;4932803;29;20919;-76
2021/05/31 08:39:26;;;;;;;28.92;18.38;;;19.20;90.20;;;;;;4949047;28;20431;-76
2021/05/31 08:41:52;;;;;;;25.95;17.77;;;19.30;90.10;;;;;;4950026;28;20434;-76
2021/05/31 08:44:19;;;;;;;26.15;16.63;;;19.30;89.00;;;;;;4949493;28;20465;-76
2021/05/31 08:46:45;;;;;;;26.65;17.10;;;19.40;87.80;;;;;;4952972;28;20465;-76
2021/05/31 08:49:13;;;;;;;25.98;17.15;;;19.40;86.20;;;;;;4949049;28;20819;-76
2021/05/31 08:51:40;;;;;;;25.00;16.13;;;19.40;85.30;;;;;;4933743;28;20441;-76
2021/05/31 08:54:07;;;;;;;25.38;18.92;;;19.50;84.70;;;;;;4950490;28;20444;-76
2021/05/31 08:56:33;;;;;;;24.35;17.63;;;19.50;86.40;;;;;;4950258;28;20516;-76
2021/05/31 08:59:00;;;;;;;25.08;16.65;;;19.60;86.40;;;;;;4948939;28;20433;-76
2021/05/31 09:01:27;;;;;;;20.80;15.48;;;19.60;85.30;;;;;;4950052;28;20454;-77
2021/05/31 09:03:55;;;;;;;21.38;14.60;;;19.70;84.50;;;;;;4954976;28;20425;-77
2021/05/31 09:06:26;;;;;;;19.60;14.30;;;19.70;82.40;;;;;;4952278;28;20843;-76
2021/05/31 09:08:54;;;;;;;26.52;14.88;;;19.80;81.30;;;;;;4952011;28;20442;-76
2021/05/31 09:11:21;;;;;;;21.40;14.60;;;19.80;81.10;;;;;;4952250;28;20476;-77
2021/05/31 09:13:48;;;;;;;22.08;14.13;;;19.90;81.60;;;;;;4930811;29;20522;-77
2021/05/31 09:16:17;;;;;;;22.60;14.93;;;19.90;82.20;;;;;;4952026;28;20446;-77
2021/05/31 09:18:46;;;;;;;23.90;14.50;;;20.00;82.70;;;;;;4952529;28;20433;-76
2021/05/31 09:21:18;;;;;;;18.90;13.10;;;20.10;82.00;;;;;;4950449;28;20529;-77
2021/05/31 09:23:47;;;;;;;21.30;13.57;;;20.20;80.80;;;;;;4949803;28;20437;-76
2021/05/31 09:26:14;;;;;;;20.42;13.43;;;20.20;81.20;;;;;;4949300;28;20484;-75
2021/05/31 09:28:52;;;;;;;21.38;13.43;;;20.30;79.80;;;;;;4950519;28;20432;-77
2021/05/31 09:31:19;;;;;;;22.50;14.30;;;20.30;78.80;;;;;;4947920;28;20441;-76
2021/05/31 09:34:00;;;;;;;20.73;13.90;;;20.40;79.20;;;;;;4949661;28;20961;-77
2021/05/31 09:36:27;;;;;;;23.40;14.63;;;20.50;79.50;;;;;;4949811;28;20434;-77
2021/05/31 09:38:55;;;;;;;20.40;14.30;;;20.60;79.00;;;;;;4950908;28;21083;-76
2021/05/31 09:41:28;;;;;;;24.08;13.35;;;20.70;78.70;;;;;;4949567;28;20894;-76
2021/05/31 09:43:56;;;;;;;21.85;13.50;;;20.80;78.30;;;;;;4949330;28;20505;-77
2021/05/31 09:46:34;;;;;;;21.48;13.30;;;20.80;77.60;;;;;;4948647;28;20449;-77
2021/05/31 09:49:09;;;;;;;17.98;11.57;;;20.90;76.70;;;;;;4949823;28;20530;-77
2021/05/31 09:51:35;;;;;;;15.60;9.90;;;20.90;74.80;;;;;;4949356;28;20493;-77
2021/05/31 09:54:03;;;;;;;15.45;10.18;;;21.00;72.60;;;;;;4932533;29;20436;-77
2021/05/31 09:56:34;;;;;;;14.88;10.00;;;21.10;71.80;;;;;;4949627;28;20444;-77
2021/05/31 09:59:03;;;;;;;15.52;10.23;;;21.20;71.50;;;;;;4947342;28;20445;-78
2021/05/31 10:01:37;;;;;;;16.55;9.52;;;21.30;70.30;;;;;;4947709;28;20985;-77
2021/05/31 10:04:19;;;;;;;17.83;10.00;;;21.30;69.80;;;;;;4949479;28;20430;-75
2021/05/31 10:06:50;;;;;;;14.23;9.10;;;21.40;69.30;;;;;;4947079;28;20513;-76
2021/05/31 10:09:18;;;;;;;19.60;9.70;;;21.50;68.90;;;;;;4950605;28;20529;-75
2021/05/31 10:11:45;;;;;;;15.55;8.65;;;21.50;69.60;;;;;;4950213;28;20485;-75
2021/05/31 10:14:14;;;;;;;14.77;8.50;;;21.60;70.30;;;;;;4953719;28;20548;-75
2021/05/31 10:16:41;;;;;;;16.08;9.63;;;21.60;67.50;;;;;;4952284;28;20440;-75
2021/05/31 10:19:08;;;;;;;15.02;8.68;;;21.70;68.60;;;;;;4953527;28;20500;-76
2021/05/31 10:21:34;;;;;;;14.67;8.67;;;21.80;66.90;;;;;;4932253;29;20910;-75
2021/05/31 10:24:01;;;;;;;13.88;8.32;;;21.90;66.70;;;;;;4935175;29;20504;-76
2021/05/31 10:26:31;;;;;;;15.15;7.95;;;21.90;66.50;;;;;;4952849;28;20445;-74
2021/05/31 10:28:59;;;;;;;13.32;6.95;;;22.00;65.90;;;;;;4952654;28;20522;-75
2021/05/31 10:31:27;;;;;;;12.98;8.15;;;22.10;63.90;;;;;;4946610;28;20509;-75
2021/05/31 10:33:58;;;;;;;13.48;8.20;;;22.20;66.20;;;;;;4949102;28;20533;-75
2021/05/31 10:36:30;;;;;;;13.40;7.00;;;22.20;65.70;;;;;;4949122;28;20437;-73
2021/05/31 10:39:01;;;;;;;13.57;8.20;;;22.30;64.40;;;;;;4948852;28;20930;-74
2021/05/31 10:41:30;;;;;;;12.37;7.07;;;22.40;64.40;;;;;;4949494;28;20489;-75
2021/05/31 10:43:59;;;;;;;12.00;6.80;;;22.50;63.00;;;;;;4951374;28;20794;-74
2021/05/31 10:46:27;;;;;;;10.57;6.97;;;22.60;62.60;;;;;;4953914;28;20728;-75
2021/05/31 10:48:55;;;;;;;12.83;7.20;;;22.60;62.00;;;;;;4955322;28;20440;-75
2021/05/31 10:51:25;;;;;;;10.52;5.80;;;22.70;63.50;;;;;;4949283;28;20501;-76
2021/05/31 10:53:51;;;;;;;10.30;6.15;;;22.80;60.90;;;;;;4952809;28;20469;-74
2021/05/31 10:56:26;;;;;;;15.50;5.63;;;22.90;59.80;;;;;;4951432;28;20831;-76
2021/05/31 10:58:55;;;;;;;10.90;5.20;;;23.00;59.60;;;;;;4953011;28;20512;-75
2021/05/31 11:01:34;;;;;;;7.20;4.70;;;23.10;59.10;;;;;;4951558;28;20449;-74
2021/05/31 11:04:03;;;;;;;10.27;5.20;;;23.20;58.10;;;;;;4951608;28;21029;-76
2021/05/31 11:06:33;;;;;;;10.20;5.35;;;23.30;56.80;;;;;;4951349;28;20811;-75
2021/05/31 11:09:05;;;;;;;10.02;4.35;;;23.30;58.40;;;;;;4932793;28;20448;-75
2021/05/31 11:11:38;;;;;;;11.40;4.68;;;23.40;57.40;;;;;;4935853;29;20500;-74
2021/05/31 11:14:07;;;;;;;7.00;4.70;;;23.50;56.20;;;;;;4932255;28;20465;-75
2021/05/31 11:16:35;;;;;;;7.13;4.07;;;23.60;55.00;;;;;;4933471;29;20445;-75
2021/05/31 11:19:02;;;;;;;7.93;4.60;;;23.60;55.30;;;;;;4953900;28;20440;-76
2021/05/31 11:21:32;;;;;;;10.05;4.57;;;23.70;53.40;;;;;;4948601;28;20452;-75
2021/05/31 11:24:02;;;;;;;9.57;5.03;;;23.80;53.80;;;;;;4934852;29;20445;-75
2021/05/31 11:26:30;;;;;;;7.75;4.05;;;23.90;54.00;;;;;;4948904;28;20445;-76
2021/05/31 11:28:57;;;;;;;7.85;3.88;;;24.00;52.50;;;;;;4954771;28;20901;-77
2021/05/31 11:31:26;;;;;;;7.28;4.20;;;24.10;52.90;;;;;;4950748;28;20838;-76
2021/05/31 11:33:54;;;;;;;6.53;3.60;;;24.20;51.30;;;;;;4950959;28;20437;-77
2021/05/31 11:36:29;;;;;;;11.93;3.90;;;24.40;49.80;;;;;;4934327;29;20775;-75
2021/05/31 11:38:55;;;;;;;6.72;3.90;;;24.50;48.30;;;;;;4954674;28;20481;-74
2021/05/31 11:41:34;;;;;;;6.95;3.55;;;24.50;49.50;;;;;;4947796;28;20488;-75
2021/05/31 11:44:01;;;;;;;11.77;5.05;;;24.60;49.00;;;;;;4952054;28;20437;-75
2021/05/31 11:46:29;;;;;;;6.90;3.53;;;24.70;48.20;;;;;;4950434;28;20445;-75
2021/05/31 11:49:05;;;;;;;8.43;3.45;;;24.80;45.00;;;;;;4953470;28;20485;-74
2021/05/31 11:51:31;;;;;;;6.85;3.78;;;25.00;44.80;;;;;;4948464;28;20913;-75
2021/05/31 11:53:58;;;;;;;10.20;5.10;;;25.00;47.10;;;;;;4951081;28;20433;-74
2021/05/31 11:56:31;;;;;;;7.15;3.85;;;25.20;47.00;;;;;;4954056;28;21234;-75
2021/05/31 11:58:57;;;;;;;6.43;3.80;;;25.30;45.30;;;;;;4952155;28;20437;-75
2021/05/31 12:01:23;;;;;;;5.90;3.40;;;25.40;44.70;;;;;;4931928;28;20469;-74
2021/05/31 12:03:51;;;;;;;7.53;3.53;;;25.60;44.60;;;;;;4949092;28;20500;-76
2021/05/31 12:06:17;;;;;;;6.68;3.25;;;25.60;43.40;;;;;;4950157;28;21152;-77
2021/05/31 12:08:46;;;;;;;3.83;2.50;;;25.80;42.40;;;;;;4933312;28;20437;-75
2021/05/31 12:11:18;;;;;;;6.45;3.28;;;25.90;41.50;;;;;;4949566;28;20444;-74
2021/05/31 12:13:45;;;;;;;7.47;3.53;;;26.00;43.00;;;;;;4951215;28;20436;-74
2021/05/31 12:16:13;;;;;;;5.85;3.00;;;26.20;43.90;;;;;;4950299;28;20448;-73
2021/05/31 12:18:39;;;;;;;5.63;2.90;;;26.20;43.30;;;;;;4935020;28;21740;-74
2021/05/31 12:21:07;;;;;;;5.45;2.92;;;26.40;42.20;;;;;;4947775;28;20879;-75
2021/05/31 12:23:34;;;;;;;6.32;3.08;;;26.50;41.40;;;;;;4932122;28;20839;-75
2021/05/31 12:26:03;;;;;;;6.00;2.78;;;26.70;42.40;;;;;;4950702;28;20209;-74
2021/05/31 12:28:31;;;;;;;5.47;3.10;;;26.60;43.40;;;;;;4950000;28;20682;-74
2021/05/31 12:30:58;;;;;;;18.50;3.65;;;26.60;43.60;;;;;;4949959;28;20745;-75
2021/05/31 12:33:24;;;;;;;9.05;3.08;;;26.60;43.70;;;;;;4950125;28;20209;-74
2021/05/31 12:35:51;;;;;;;15.50;2.90;;;26.60;43.20;;;;;;4951766;28;20202;-76
2021/05/31 12:38:22;;;;;;;11.32;2.85;;;26.70;42.80;;;;;;4930289;29;20483;-75
2021/05/31 12:40:50;;;;;;;6.78;2.97;;;27.00;41.10;;;;;;4933483;28;20456;-75
2021/05/31 12:43:17;;;;;;;18.65;3.60;;;27.20;39.90;;;;;;4949358;28;20434;-77